createdAt,value
2023-02-07T00:00:18.888Z,-0.14
2023-02-07T00:01:18.959Z,-0.12
2023-02-07T00:02:19.260Z,-0.12
2023-02-07T00:03:19.276Z,-0.12
2023-02-07T00:04:19.342Z,-0.13
2023-02-07T00:05:19.574Z,-0.14
2023-02-07T00:06:19.615Z,-0.14
2023-02-07T00:07:19.742Z,-0.16
2023-02-07T00:08:19.938Z,-0.12
2023-02-07T00:09:20.026Z,-0.12
2023-02-07T00:10:20.188Z,-0.13
2023-02-07T00:11:20.424Z,-0.13
2023-02-07T00:12:20.470Z,-0.14
2023-02-07T00:13:20.600Z,-0.13
2023-02-07T00:14:20.769Z,-0.12
2023-02-07T00:15:20.883Z,-0.08
2023-02-07T00:16:21.023Z,-0.08
2023-02-07T00:17:21.317Z,-0.12
2023-02-07T00:18:21.197Z,-0.16
2023-02-07T00:19:21.414Z,-0.17
2023-02-07T00:20:21.484Z,-0.19
2023-02-07T00:21:21.658Z,-0.21
2023-02-07T00:22:21.725Z,-0.19
2023-02-07T00:23:21.899Z,-0.20
2023-02-07T00:24:22.147Z,-0.17
2023-02-07T00:25:22.169Z,-0.19
2023-02-07T00:26:22.337Z,-0.20
2023-02-07T00:27:22.486Z,-0.21
2023-02-07T00:28:22.761Z,-0.24
2023-02-07T00:29:22.782Z,-0.24
2023-02-07T00:30:22.967Z,-0.24
2023-02-07T00:31:23.217Z,-0.24
2023-02-07T00:32:23.158Z,-0.26
2023-02-07T00:33:23.327Z,-0.31
2023-02-07T00:34:23.491Z,-0.31
2023-02-07T00:35:23.589Z,-0.30
2023-02-07T00:36:23.773Z,-0.30
2023-02-07T00:37:23.912Z,-0.30
2023-02-07T00:38:23.996Z,-0.32
2023-02-07T00:39:25.113Z,-0.31
2023-02-07T00:40:24.236Z,-0.35
2023-02-07T00:41:24.466Z,-0.39
2023-02-07T00:42:24.536Z,-0.38
2023-02-07T00:43:29.566Z,-0.39
2023-02-07T00:44:25.757Z,-0.39
2023-02-07T00:45:24.886Z,-0.39
2023-02-07T00:46:32.611Z,-0.37
2023-02-07T00:47:25.156Z,-0.38
2023-02-07T00:48:25.335Z,-0.41
2023-02-07T00:49:25.474Z,-0.42
2023-02-07T00:50:25.621Z,-0.50
2023-02-07T00:51:25.751Z,-0.55
2023-02-07T00:52:25.835Z,-0.58
2023-02-07T00:53:25.931Z,-0.60
2023-02-07T00:54:26.050Z,-0.58
2023-02-07T00:55:26.207Z,-0.59
2023-02-07T00:56:26.369Z,-0.62
2023-02-07T00:57:26.485Z,-0.62
2023-02-07T00:58:26.607Z,-0.67
2023-02-07T00:59:26.767Z,-0.73
2023-02-07T01:00:26.925Z,-0.77
2023-02-07T01:01:27.098Z,-0.80
2023-02-07T01:02:27.173Z,-0.83
2023-02-07T01:03:27.310Z,-0.86
2023-02-07T01:04:27.474Z,-0.93
2023-02-07T01:05:27.617Z,-0.97
2023-02-07T01:06:27.714Z,-0.95
2023-02-07T01:07:27.854Z,-0.92
2023-02-07T01:08:28.017Z,-0.89
2023-02-07T01:09:28.163Z,-0.93
2023-02-07T01:10:28.319Z,-0.95
2023-02-07T01:11:28.492Z,-0.95
2023-02-07T01:12:28.587Z,-0.95
2023-02-07T01:13:28.725Z,-0.97
2023-02-07T01:14:28.867Z,-1.02
2023-02-07T01:15:29.043Z,-1.03
2023-02-07T01:16:29.136Z,-1.03
2023-02-07T01:17:29.267Z,-1.03
2023-02-07T01:18:29.408Z,-1.03
2023-02-07T01:19:29.559Z,-1.02
2023-02-07T01:20:29.633Z,-1.00
2023-02-07T01:21:29.782Z,-0.99
2023-02-07T01:22:29.898Z,-0.96
2023-02-07T01:23:30.034Z,-0.95
2023-02-07T01:24:30.196Z,-0.92
2023-02-07T01:25:30.332Z,-0.90
2023-02-07T01:26:30.461Z,-0.85
2023-02-07T01:27:30.582Z,-0.81
2023-02-07T01:28:30.712Z,-0.80
2023-02-07T01:29:30.947Z,-0.77
2023-02-07T01:30:30.992Z,-0.76
2023-02-07T01:31:31.205Z,-0.76
2023-02-07T01:32:31.192Z,-0.73
2023-02-07T01:33:31.342Z,-0.74
2023-02-07T01:34:31.433Z,-0.76
2023-02-07T01:35:31.559Z,-0.77
2023-02-07T01:36:31.688Z,-0.78
2023-02-07T01:37:31.821Z,-0.78
2023-02-07T01:38:31.969Z,-0.77
2023-02-07T01:39:32.100Z,-0.77
2023-02-07T01:40:32.220Z,-0.78
2023-02-07T01:41:32.359Z,-0.77
2023-02-07T01:42:32.486Z,-0.76
2023-02-07T01:43:32.630Z,-0.78
2023-02-07T01:44:32.758Z,-0.80
2023-02-07T01:45:32.888Z,-0.80
2023-02-07T01:46:33.085Z,-0.78
2023-02-07T01:47:33.206Z,-0.77
2023-02-07T01:48:33.318Z,-0.76
2023-02-07T01:49:33.547Z,-0.76
2023-02-07T01:50:33.569Z,-0.74
2023-02-07T01:51:33.705Z,-0.71
2023-02-07T01:52:33.865Z,-0.74
2023-02-07T01:53:33.991Z,-0.73
2023-02-07T01:54:34.132Z,-0.74
2023-02-07T01:55:34.273Z,-0.76
2023-02-07T01:56:34.406Z,-0.80
2023-02-07T01:57:34.546Z,-0.81
2023-02-07T01:58:36.111Z,-0.81
2023-02-07T01:59:34.821Z,-0.80
2023-02-07T02:00:34.963Z,-0.83
2023-02-07T02:01:35.161Z,-0.85
2023-02-07T02:02:35.265Z,-0.86
2023-02-07T02:03:35.350Z,-0.90
2023-02-07T02:04:35.502Z,-0.90
2023-02-07T02:05:35.817Z,-0.89
2023-02-07T02:06:35.806Z,-0.90
2023-02-07T02:07:36.040Z,-0.85
2023-02-07T02:08:36.073Z,-0.89
2023-02-07T02:09:36.208Z,-0.89
2023-02-07T02:10:36.296Z,-0.90
2023-02-07T02:11:36.445Z,-0.93
2023-02-07T02:12:36.569Z,-0.95
2023-02-07T02:13:36.699Z,-0.97
2023-02-07T02:14:36.919Z,-1.03
2023-02-07T02:15:37.509Z,-1.03
2023-02-07T02:16:37.069Z,-1.07
2023-02-07T02:17:37.263Z,-1.08
2023-02-07T02:18:37.408Z,-1.08
2023-02-07T02:19:37.540Z,-1.08
2023-02-07T02:20:37.694Z,-1.08
2023-02-07T02:21:37.846Z,-1.07
2023-02-07T02:22:38.020Z,-1.05
2023-02-07T02:23:38.087Z,-1.03
2023-02-07T02:24:38.235Z,-1.07
2023-02-07T02:25:38.647Z,-1.07
2023-02-07T02:26:38.451Z,-1.10
2023-02-07T02:27:38.648Z,-1.08
2023-02-07T02:28:38.795Z,-1.08
2023-02-07T02:29:38.956Z,-1.10
2023-02-07T02:30:39.110Z,-1.14
2023-02-07T02:31:39.224Z,-1.15
2023-02-07T02:32:39.328Z,-1.13
2023-02-07T02:33:39.387Z,-1.10
2023-02-07T02:34:39.540Z,-1.08
2023-02-07T02:35:40.015Z,-1.13
2023-02-07T02:36:39.813Z,-1.14
2023-02-07T02:37:39.914Z,-1.17
2023-02-07T02:38:40.056Z,-1.18
2023-02-07T02:39:40.175Z,-1.21
2023-02-07T02:40:40.304Z,-1.28
2023-02-07T02:41:40.459Z,-1.28
2023-02-07T02:42:40.554Z,-1.35
2023-02-07T02:43:40.688Z,-1.36
2023-02-07T02:44:40.886Z,-1.38
2023-02-07T02:45:40.947Z,-1.43
2023-02-07T02:46:41.157Z,-1.41
2023-02-07T02:47:41.204Z,-1.39
2023-02-07T02:48:41.368Z,-1.39
2023-02-07T02:49:41.436Z,-1.38
2023-02-07T02:50:41.565Z,-1.39
2023-02-07T02:51:41.705Z,-1.39
2023-02-07T02:52:50.732Z,-1.44
2023-02-07T02:53:42.947Z,-1.51
2023-02-07T02:54:42.092Z,-1.54
2023-02-07T02:55:42.236Z,-1.61
2023-02-07T02:56:42.382Z,-1.67
2023-02-07T02:57:42.488Z,-1.70
2023-02-07T02:58:42.626Z,-1.75
2023-02-07T02:59:42.748Z,-1.80
2023-02-07T03:00:42.887Z,-1.88
2023-02-07T03:01:43.108Z,-1.88
2023-02-07T03:02:43.188Z,-1.90
2023-02-07T03:03:43.353Z,-1.90
2023-02-07T03:04:43.492Z,-1.98
2023-02-07T03:05:43.611Z,-2.03
2023-02-07T03:06:43.735Z,-2.07
2023-02-07T03:07:43.873Z,-2.08
2023-02-07T03:08:44.024Z,-2.11
2023-02-07T03:09:44.125Z,-2.11
2023-02-07T03:10:44.827Z,-2.11
2023-02-07T03:11:44.386Z,-2.13
2023-02-07T03:12:44.523Z,-2.13
2023-02-07T03:13:44.653Z,-2.14
2023-02-07T03:14:44.793Z,-2.14
2023-02-07T03:15:44.917Z,-2.16
2023-02-07T03:16:45.081Z,-2.13
2023-02-07T03:17:45.176Z,-2.18
2023-02-07T03:18:45.326Z,-2.24
2023-02-07T03:19:45.472Z,-2.25
2023-02-07T03:20:45.604Z,-2.28
2023-02-07T03:21:45.739Z,-2.35
2023-02-07T03:22:45.860Z,-2.41
2023-02-07T03:23:45.981Z,-2.43
2023-02-07T03:24:46.127Z,-2.46
2023-02-07T03:25:46.227Z,-2.53
2023-02-07T03:26:46.368Z,-2.51
2023-02-07T03:27:46.549Z,-2.55
2023-02-07T03:28:46.667Z,-2.55
2023-02-07T03:29:46.800Z,-2.56
2023-02-07T03:30:46.971Z,-2.56
2023-02-07T03:31:47.034Z,-2.59
2023-02-07T03:32:47.176Z,-2.64
2023-02-07T03:33:47.296Z,-2.62
2023-02-07T03:34:47.424Z,-2.55
2023-02-07T03:35:47.578Z,-2.53
2023-02-07T03:36:47.662Z,-2.55
2023-02-07T03:37:47.792Z,-2.51
2023-02-07T03:38:48.519Z,-2.55
2023-02-07T03:39:48.124Z,-2.61
2023-02-07T03:40:48.212Z,-2.61
2023-02-07T03:41:48.324Z,-2.61
2023-02-07T03:42:48.467Z,-2.62
2023-02-07T03:43:48.590Z,-2.66
2023-02-07T03:44:48.722Z,-2.69
2023-02-07T03:45:48.860Z,-2.71
2023-02-07T03:46:49.005Z,-2.66
2023-02-07T03:47:49.167Z,-2.64
2023-02-07T03:48:49.300Z,-2.59
2023-02-07T03:49:49.444Z,-2.58
2023-02-07T03:50:49.600Z,-2.58
2023-02-07T03:51:49.742Z,-2.65
2023-02-07T03:52:49.874Z,-2.71
2023-02-07T03:53:49.998Z,-2.74
2023-02-07T03:54:50.125Z,-2.77
2023-02-07T03:55:50.283Z,-2.80
2023-02-07T03:56:50.370Z,-2.83
2023-02-07T03:57:50.530Z,-2.84
2023-02-07T03:58:50.650Z,-2.87
2023-02-07T03:59:50.883Z,-2.90
2023-02-07T04:00:50.950Z,-2.94
2023-02-07T04:01:51.105Z,-2.98
2023-02-07T04:02:51.190Z,-3.04
2023-02-07T04:03:51.336Z,-3.08
2023-02-07T04:04:51.443Z,-3.12
2023-02-07T04:05:51.592Z,-3.08
2023-02-07T04:06:51.719Z,-3.10
2023-02-07T04:07:51.821Z,-3.12
2023-02-07T04:08:51.943Z,-3.15
2023-02-07T04:09:52.091Z,-3.12
2023-02-07T04:10:52.240Z,-3.13
2023-02-07T04:11:52.373Z,-3.18
2023-02-07T04:12:52.510Z,-3.18
2023-02-07T04:13:52.630Z,-3.18
2023-02-07T04:14:52.729Z,-3.18
2023-02-07T04:15:52.860Z,-3.15
2023-02-07T04:16:53.045Z,-3.16
2023-02-07T04:17:53.099Z,-3.13
2023-02-07T04:18:53.236Z,-3.15
2023-02-07T04:19:53.363Z,-3.18
2023-02-07T04:20:53.499Z,-3.16
2023-02-07T04:21:53.608Z,-3.13
2023-02-07T04:22:53.747Z,-3.10
2023-02-07T04:23:53.900Z,-3.12
2023-02-07T04:24:54.045Z,-3.16
2023-02-07T04:25:54.159Z,-3.15
2023-02-07T04:26:54.308Z,-3.18
2023-02-07T04:27:54.477Z,-3.16
2023-02-07T04:28:54.519Z,-3.13
2023-02-07T04:29:54.653Z,-3.16
2023-02-07T04:30:54.854Z,-3.19
2023-02-07T04:31:56.886Z,-3.25
2023-02-07T04:32:55.147Z,-3.26
2023-02-07T04:33:55.273Z,-3.25
2023-02-07T04:34:55.443Z,-3.23
2023-02-07T04:35:55.584Z,-3.21
2023-02-07T04:36:55.725Z,-3.16
2023-02-07T04:37:55.840Z,-3.13
2023-02-07T04:38:55.972Z,-3.10
2023-02-07T04:39:56.112Z,-3.08
2023-02-07T04:40:56.225Z,-3.07
2023-02-07T04:41:56.329Z,-2.97
2023-02-07T04:42:56.457Z,-2.94
2023-02-07T04:43:56.570Z,-3.00
2023-02-07T04:44:56.718Z,-3.05
2023-02-07T04:45:56.852Z,-3.10
2023-02-07T04:46:56.968Z,-3.18
2023-02-07T04:47:57.111Z,-3.22
2023-02-07T04:48:57.244Z,-3.22
2023-02-07T04:49:57.382Z,-3.25
2023-02-07T04:50:57.617Z,-3.30
2023-02-07T04:51:57.648Z,-3.31
2023-02-07T04:52:57.780Z,-3.33
2023-02-07T04:53:57.898Z,-3.36
2023-02-07T04:54:58.032Z,-3.39
2023-02-07T04:55:58.136Z,-3.39
2023-02-07T04:56:58.265Z,-3.41
2023-02-07T04:57:58.403Z,-3.47
2023-02-07T04:58:58.526Z,-3.46
2023-02-07T04:59:58.665Z,-3.51
2023-02-07T05:00:58.880Z,-3.47
2023-02-07T05:01:58.980Z,-3.52
2023-02-07T05:03:00.644Z,-3.55
2023-02-07T05:03:59.219Z,-3.57
2023-02-07T05:04:59.339Z,-3.55
2023-02-07T05:05:59.472Z,-3.49
2023-02-07T05:06:59.631Z,-3.43
2023-02-07T05:07:59.711Z,-3.43
2023-02-07T05:08:59.843Z,-3.43
2023-02-07T05:09:59.967Z,-3.43
2023-02-07T05:11:00.111Z,-3.39
2023-02-07T05:12:00.286Z,-3.33
2023-02-07T05:13:00.443Z,-3.28
2023-02-07T05:14:00.624Z,-3.23
2023-02-07T05:15:00.716Z,-3.30
2023-02-07T05:16:00.800Z,-3.31
2023-02-07T05:17:00.930Z,-3.34
2023-02-07T05:18:01.050Z,-3.36
2023-02-07T05:19:01.199Z,-3.39
2023-02-07T05:20:01.297Z,-3.43
2023-02-07T05:21:01.478Z,-3.41
2023-02-07T05:22:01.594Z,-3.43
2023-02-07T05:23:01.728Z,-3.49
2023-02-07T05:24:01.861Z,-3.54
2023-02-07T05:25:01.984Z,-3.51
2023-02-07T05:26:02.115Z,-3.49
2023-02-07T05:27:02.247Z,-3.44
2023-02-07T05:28:02.388Z,-3.41
2023-02-07T05:29:02.507Z,-3.43
2023-02-07T05:30:02.632Z,-3.44
2023-02-07T05:31:02.862Z,-3.41
2023-02-07T05:32:04.381Z,-3.41
2023-02-07T05:33:03.128Z,-3.46
2023-02-07T05:34:03.310Z,-3.54
2023-02-07T05:35:03.388Z,-3.61
2023-02-07T05:36:03.484Z,-3.64
2023-02-07T05:37:03.616Z,-3.58
2023-02-07T05:38:03.762Z,-3.58
2023-02-07T05:39:04.506Z,-3.61
2023-02-07T05:40:04.014Z,-3.54
2023-02-07T05:41:04.144Z,-3.54
2023-02-07T05:42:04.279Z,-3.52
2023-02-07T05:43:04.402Z,-3.51
2023-02-07T05:44:04.533Z,-3.51
2023-02-07T05:45:04.684Z,-3.55
2023-02-07T05:46:04.779Z,-3.61
2023-02-07T05:47:04.915Z,-3.61
2023-02-07T05:48:05.034Z,-3.61
2023-02-07T05:49:05.162Z,-3.58
2023-02-07T05:50:05.303Z,-3.58
2023-02-07T05:51:05.446Z,-3.61
2023-02-07T05:52:05.579Z,-3.59
2023-02-07T05:53:05.737Z,-3.64
2023-02-07T05:54:05.806Z,-3.64
2023-02-07T05:55:05.948Z,-3.61
2023-02-07T05:56:06.067Z,-3.61
2023-02-07T05:57:07.678Z,-3.61
2023-02-07T05:58:06.315Z,-3.65
2023-02-07T05:59:06.464Z,-3.70
2023-02-07T06:00:06.562Z,-3.80
2023-02-07T06:01:06.688Z,-3.81
2023-02-07T06:02:06.862Z,-3.83
2023-02-07T06:03:06.935Z,-3.83
2023-02-07T06:04:07.053Z,-3.83
2023-02-07T06:05:07.194Z,-3.89
2023-02-07T06:06:07.331Z,-3.94
2023-02-07T06:07:07.470Z,-3.98
2023-02-07T06:08:07.561Z,-3.97
2023-02-07T06:09:07.709Z,-3.92
2023-02-07T06:10:07.902Z,-3.89
2023-02-07T06:11:07.970Z,-3.84
2023-02-07T06:12:08.097Z,-3.83
2023-02-07T06:13:08.231Z,-3.83
2023-02-07T06:14:08.373Z,-3.83
2023-02-07T06:15:08.589Z,-3.83
2023-02-07T06:16:08.678Z,-3.83
2023-02-07T06:17:08.780Z,-3.81
2023-02-07T06:18:08.921Z,-3.84
2023-02-07T06:19:09.061Z,-3.89
2023-02-07T06:20:09.186Z,-3.92
2023-02-07T06:21:09.356Z,-3.94
2023-02-07T06:22:09.430Z,-3.99
2023-02-07T06:23:09.564Z,-4.01
2023-02-07T06:24:09.716Z,-3.99
2023-02-07T06:25:10.537Z,-3.97
2023-02-07T06:26:09.990Z,-3.94
2023-02-07T06:27:10.112Z,-3.97
2023-02-07T06:28:10.318Z,-3.97
2023-02-07T06:29:10.360Z,-3.95
2023-02-07T06:30:10.475Z,-3.95
2023-02-07T06:31:10.647Z,-3.97
2023-02-07T06:32:10.650Z,-3.95
2023-02-07T06:33:10.791Z,-4.01
2023-02-07T06:34:10.924Z,-4.01
2023-02-07T06:35:11.074Z,-4.01
2023-02-07T06:36:11.204Z,-3.99
2023-02-07T06:37:11.340Z,-4.06
2023-02-07T06:38:11.469Z,-4.10
2023-02-07T06:39:11.593Z,-4.10
2023-02-07T06:40:11.799Z,-4.09
2023-02-07T06:41:11.834Z,-4.09
2023-02-07T06:42:11.976Z,-4.10
2023-02-07T06:43:12.090Z,-4.16
2023-02-07T06:44:12.259Z,-4.19
2023-02-07T06:45:12.362Z,-4.20
2023-02-07T06:46:21.865Z,-4.19
2023-02-07T06:47:12.840Z,-4.16
2023-02-07T06:48:12.830Z,-4.13
2023-02-07T06:49:12.890Z,-4.10
2023-02-07T06:50:13.018Z,-4.09
2023-02-07T06:51:13.240Z,-4.07
2023-02-07T06:52:13.342Z,-4.07
2023-02-07T06:53:13.432Z,-4.06
2023-02-07T06:54:13.601Z,-4.06
2023-02-07T06:55:13.679Z,-3.98
2023-02-07T06:56:13.899Z,-3.95
2023-02-07T06:57:14.653Z,-3.92
2023-02-07T06:58:14.079Z,-3.88
2023-02-07T06:59:14.775Z,-3.92
2023-02-07T07:00:14.293Z,-3.91
2023-02-07T07:01:14.377Z,-3.97
2023-02-07T07:02:14.565Z,-3.97
2023-02-07T07:03:14.657Z,-3.98
2023-02-07T07:04:14.786Z,-4.06
2023-02-07T07:05:16.395Z,-4.06
2023-02-07T07:06:15.013Z,-4.07
2023-02-07T07:07:15.104Z,-4.06
2023-02-07T07:08:15.212Z,-3.99
2023-02-07T07:09:15.340Z,-3.94
2023-02-07T07:10:15.512Z,-3.95
2023-02-07T07:11:15.660Z,-3.99
2023-02-07T07:12:15.769Z,-4.02
2023-02-07T07:13:15.870Z,-4.01
2023-02-07T07:14:16.008Z,-4.02
2023-02-07T07:15:16.200Z,-4.01
2023-02-07T07:16:16.257Z,-4.04
2023-02-07T07:17:16.330Z,-4.02
2023-02-07T07:18:16.497Z,-4.04
2023-02-07T07:19:16.650Z,-4.02
2023-02-07T07:20:16.775Z,-4.02
2023-02-07T07:21:16.942Z,-4.02
2023-02-07T07:22:17.091Z,-3.99
2023-02-07T07:23:17.199Z,-3.95
2023-02-07T07:24:17.300Z,-3.91
2023-02-07T07:25:17.426Z,-3.88
2023-02-07T07:26:17.527Z,-3.89
2023-02-07T07:27:17.652Z,-3.83
2023-02-07T07:28:17.800Z,-3.72
2023-02-07T07:29:17.875Z,-3.64
2023-02-07T07:30:17.995Z,-3.62
2023-02-07T07:31:18.158Z,-3.62
2023-02-07T07:32:33.002Z,-3.58
2023-02-07T07:33:19.381Z,-3.52
2023-02-07T07:34:18.471Z,-3.47
2023-02-07T07:35:19.559Z,-3.44
2023-02-07T07:36:18.713Z,-3.41
2023-02-07T07:37:18.855Z,-3.43
2023-02-07T07:38:18.943Z,-3.43
2023-02-07T07:39:19.063Z,-3.43
2023-02-07T07:40:19.172Z,-3.47
2023-02-07T07:41:19.273Z,-3.51
2023-02-07T07:42:19.489Z,-3.49
2023-02-07T07:43:19.547Z,-3.46
2023-02-07T07:44:19.652Z,-3.43
2023-02-07T07:45:19.776Z,-3.37
2023-02-07T07:46:19.948Z,-3.37
2023-02-07T07:47:20.009Z,-3.36
2023-02-07T07:48:20.149Z,-3.34
2023-02-07T07:49:20.234Z,-3.34
2023-02-07T07:50:20.347Z,-3.33
2023-02-07T07:51:20.426Z,-3.31
2023-02-07T07:52:20.608Z,-3.31
2023-02-07T07:53:20.702Z,-3.31
2023-02-07T07:54:20.823Z,-3.30
2023-02-07T07:55:20.964Z,-3.30
2023-02-07T07:56:21.038Z,-3.22
2023-02-07T07:57:21.416Z,-3.18
2023-02-07T07:58:21.318Z,-3.10
2023-02-07T07:59:24.287Z,-3.01
2023-02-07T08:00:21.613Z,-2.90
2023-02-07T08:01:21.702Z,-2.83
2023-02-07T08:02:21.841Z,-2.79
2023-02-07T08:03:21.988Z,-2.76
2023-02-07T08:04:22.147Z,-2.69
2023-02-07T08:05:22.242Z,-2.64
2023-02-07T08:06:22.358Z,-2.56
2023-02-07T08:07:22.451Z,-2.48
2023-02-07T08:08:22.637Z,-2.41
2023-02-07T08:09:22.725Z,-2.37
2023-02-07T08:10:22.850Z,-2.28
2023-02-07T08:11:23.091Z,-2.25
2023-02-07T08:12:23.070Z,-2.24
2023-02-07T08:13:23.379Z,-2.21
2023-02-07T08:14:23.340Z,-2.18
2023-02-07T08:15:23.436Z,-2.18
2023-02-07T08:16:23.656Z,-2.18
2023-02-07T08:17:23.703Z,-2.18
2023-02-07T08:18:23.817Z,-2.18
2023-02-07T08:19:23.908Z,-2.19
2023-02-07T08:20:24.084Z,-2.14
2023-02-07T08:21:24.183Z,-2.11
2023-02-07T08:22:24.400Z,-2.10
2023-02-07T08:23:24.429Z,-2.04
2023-02-07T08:24:24.631Z,-2.00
2023-02-07T08:25:24.724Z,-1.92
2023-02-07T08:26:24.846Z,-1.86
2023-02-07T08:27:24.932Z,-1.82
2023-02-07T08:28:25.152Z,-1.83
2023-02-07T08:29:25.204Z,-1.74
2023-02-07T08:30:25.321Z,-1.68
2023-02-07T08:31:25.805Z,-1.67
2023-02-07T08:32:25.551Z,-1.67
2023-02-07T08:33:25.686Z,-1.65
2023-02-07T08:34:25.753Z,-1.67
2023-02-07T08:35:25.882Z,-1.65
2023-02-07T08:36:26.001Z,-1.65
2023-02-07T08:37:26.102Z,-1.62
2023-02-07T08:38:26.247Z,-1.59
2023-02-07T08:39:26.339Z,-1.56
2023-02-07T08:40:26.494Z,-1.54
2023-02-07T08:41:26.626Z,-1.54
2023-02-07T08:42:26.735Z,-1.51
2023-02-07T08:43:26.822Z,-1.47
2023-02-07T08:44:26.938Z,-1.47
2023-02-07T08:45:27.148Z,-1.47
2023-02-07T08:46:27.298Z,-1.44
2023-02-07T08:47:27.384Z,-1.44
2023-02-07T08:48:27.591Z,-1.41
2023-02-07T08:49:27.596Z,-1.41
2023-02-07T08:50:27.746Z,-1.39
2023-02-07T08:51:27.876Z,-1.35
2023-02-07T08:52:29.741Z,-1.33
2023-02-07T08:53:28.198Z,-1.31
2023-02-07T08:54:28.284Z,-1.26
2023-02-07T08:55:28.437Z,-1.17
2023-02-07T08:56:28.553Z,-1.10
2023-02-07T08:57:28.682Z,-1.03
2023-02-07T08:58:28.818Z,-0.97
2023-02-07T08:59:28.909Z,-0.92
2023-02-07T09:00:29.049Z,-0.78
2023-02-07T09:01:29.173Z,-0.67
2023-02-07T09:02:29.364Z,-0.44
2023-02-07T09:03:29.425Z,-0.21
2023-02-07T09:04:29.598Z,-0.09
2023-02-07T09:05:29.695Z,-0.14
2023-02-07T09:06:29.801Z,-0.20
2023-02-07T09:07:29.941Z,-0.26
2023-02-07T09:08:30.089Z,-0.26
2023-02-07T09:09:30.225Z,-0.24
2023-02-07T09:10:30.385Z,-0.17
2023-02-07T09:11:30.616Z,-0.16
2023-02-07T09:12:30.615Z,-0.09
2023-02-07T09:13:30.713Z,-0.06
2023-02-07T09:14:30.870Z,-0.02
2023-02-07T09:15:31.102Z,0.05
2023-02-07T09:16:31.183Z,0.07
2023-02-07T09:17:31.269Z,0.07
2023-02-07T09:18:31.444Z,0.12
2023-02-07T09:19:31.613Z,0.15
2023-02-07T09:20:31.701Z,0.19
2023-02-07T09:21:31.871Z,0.22
2023-02-07T09:22:32.072Z,0.35
2023-02-07T09:23:32.175Z,0.74
2023-02-07T09:24:32.314Z,1.18
2023-02-07T09:25:32.492Z,1.63
2023-02-07T09:26:32.591Z,2.00
2023-02-07T09:27:32.724Z,2.25
2023-02-07T09:28:32.884Z,2.51
2023-02-07T09:29:33.029Z,2.92
2023-02-07T09:30:33.270Z,3.25
2023-02-07T09:31:33.373Z,3.59
2023-02-07T09:32:33.518Z,3.96
2023-02-07T09:33:33.632Z,4.21
2023-02-07T09:34:33.809Z,4.43
2023-02-07T09:35:33.895Z,4.47
2023-02-07T09:36:34.054Z,4.39
2023-02-07T09:37:46.821Z,4.64
2023-02-07T09:38:35.326Z,4.91
2023-02-07T09:39:34.463Z,4.96
2023-02-07T09:40:34.599Z,4.88
2023-02-07T09:41:34.723Z,5.15
2023-02-07T09:42:34.904Z,5.12
2023-02-07T09:43:38.611Z,5.15
2023-02-07T09:44:35.320Z,5.44
2023-02-07T09:45:35.292Z,5.59
2023-02-07T09:46:35.424Z,5.51
2023-02-07T09:47:35.544Z,5.90
2023-02-07T09:48:35.687Z,5.90
2023-02-07T09:49:35.938Z,5.96
2023-02-07T09:50:36.225Z,6.24
2023-02-07T09:51:36.120Z,6.33
2023-02-07T09:52:36.282Z,6.13
2023-02-07T09:53:36.378Z,5.95
2023-02-07T09:54:36.503Z,5.83
2023-02-07T09:55:37.095Z,5.33
2023-02-07T09:56:36.799Z,5.58
2023-02-07T09:57:36.950Z,5.62
2023-02-07T09:58:37.572Z,5.60
2023-02-07T09:59:37.169Z,5.45
2023-02-07T10:00:37.600Z,5.19
2023-02-07T10:01:37.516Z,5.01
2023-02-07T10:02:37.630Z,4.83
2023-02-07T10:03:37.708Z,4.51
2023-02-07T10:04:37.876Z,4.38
2023-02-07T10:05:37.978Z,4.31
2023-02-07T10:06:38.087Z,4.39
2023-02-07T10:07:38.235Z,4.42
2023-02-07T10:08:41.211Z,4.44
2023-02-07T10:09:38.552Z,4.62
2023-02-07T10:10:38.655Z,4.88
2023-02-07T10:11:38.814Z,5.19
2023-02-07T10:12:38.891Z,5.45
2023-02-07T10:13:38.995Z,5.65
2023-02-07T10:14:39.261Z,5.92
2023-02-07T10:15:39.303Z,5.67
2023-02-07T10:16:39.438Z,5.75
2023-02-07T10:17:39.597Z,6.13
2023-02-07T10:18:39.752Z,6.53
2023-02-07T10:19:39.911Z,6.78
2023-02-07T10:20:40.457Z,6.58
2023-02-07T10:21:40.734Z,6.94
2023-02-07T10:22:40.329Z,7.23
2023-02-07T10:23:40.483Z,7.48
2023-02-07T10:24:40.657Z,7.60
2023-02-07T10:25:40.793Z,7.81
2023-02-07T10:26:40.950Z,7.95
2023-02-07T10:27:41.056Z,7.92
2023-02-07T10:28:41.186Z,7.70
2023-02-07T10:29:41.315Z,7.74
2023-02-07T10:30:41.836Z,7.82
2023-02-07T10:31:41.704Z,7.77
2023-02-07T10:32:41.756Z,7.63
2023-02-07T10:33:41.836Z,7.44
2023-02-07T10:34:41.988Z,7.42
2023-02-07T10:35:42.180Z,7.21
2023-02-07T10:36:42.313Z,7.14
2023-02-07T10:37:42.434Z,7.26
2023-02-07T10:38:42.572Z,7.15
2023-02-07T10:39:42.746Z,7.23
2023-02-07T10:40:42.876Z,7.29
2023-02-07T10:41:45.070Z,7.34
2023-02-07T10:42:43.316Z,7.50
2023-02-07T10:43:43.297Z,7.69
2023-02-07T10:44:43.443Z,7.82
2023-02-07T10:45:43.533Z,7.99
2023-02-07T10:46:43.719Z,7.94
2023-02-07T10:47:43.796Z,8.18
2023-02-07T10:48:43.951Z,8.43
2023-02-07T10:49:44.078Z,8.55
2023-02-07T10:50:44.544Z,8.76
2023-02-07T10:51:44.365Z,9.16
2023-02-07T10:52:44.509Z,9.41
2023-02-07T10:53:54.240Z,9.67
2023-02-07T10:54:45.777Z,9.80
2023-02-07T10:55:44.887Z,9.99
2023-02-07T10:56:44.979Z,10.44
2023-02-07T10:57:51.001Z,10.63
2023-02-07T10:58:46.252Z,10.62
2023-02-07T10:59:45.396Z,10.84
2023-02-07T11:00:45.529Z,11.03
2023-02-07T11:01:45.700Z,11.08
2023-02-07T11:02:45.793Z,11.11
2023-02-07T11:03:45.887Z,11.23
2023-02-07T11:04:46.039Z,11.84
2023-02-07T11:05:46.114Z,11.67
2023-02-07T11:06:46.264Z,11.57
2023-02-07T11:07:48.221Z,10.70
2023-02-07T11:08:46.475Z,10.68
2023-02-07T11:09:46.618Z,10.90
2023-02-07T11:10:46.792Z,11.03
2023-02-07T11:11:46.948Z,11.16
2023-02-07T11:12:46.987Z,11.81
2023-02-07T11:13:47.135Z,12.41
2023-02-07T11:14:52.996Z,12.34
2023-02-07T11:15:48.431Z,11.16
2023-02-07T11:16:47.525Z,10.32
2023-02-07T11:17:47.675Z,10.54
2023-02-07T11:18:47.755Z,10.69
2023-02-07T11:19:47.917Z,11.02
2023-02-07T11:20:48.018Z,11.01
2023-02-07T11:21:48.173Z,11.60
2023-02-07T11:22:48.277Z,12.05
2023-02-07T11:23:48.416Z,12.89
2023-02-07T11:24:48.565Z,13.27
2023-02-07T11:25:48.709Z,13.71
2023-02-07T11:26:48.820Z,13.91
2023-02-07T11:27:48.963Z,13.36
2023-02-07T11:28:49.051Z,12.91
2023-02-07T11:29:49.196Z,12.46
2023-02-07T11:30:49.367Z,12.59
2023-02-07T11:31:49.485Z,12.81
2023-02-07T11:32:49.590Z,13.35
2023-02-07T11:33:49.761Z,13.86
2023-02-07T11:34:49.839Z,13.94
2023-02-07T11:35:49.977Z,14.13
2023-02-07T11:36:50.138Z,14.20
2023-02-07T11:37:50.259Z,14.16
2023-02-07T11:38:50.370Z,14.24
2023-02-07T11:39:50.524Z,14.41
2023-02-07T11:40:50.652Z,14.36
2023-02-07T11:41:50.750Z,12.85
2023-02-07T11:42:50.857Z,12.49
2023-02-07T11:43:51.017Z,12.49
2023-02-07T11:44:51.137Z,12.30
2023-02-07T11:45:51.253Z,12.01
2023-02-07T11:46:51.478Z,12.12
2023-02-07T11:47:51.477Z,12.99
2023-02-07T11:48:51.607Z,13.12
2023-02-07T11:49:51.770Z,13.28
2023-02-07T11:50:51.937Z,13.38
2023-02-07T11:51:52.043Z,13.44
2023-02-07T11:52:52.127Z,12.96
2023-02-07T11:53:52.260Z,12.87
2023-02-07T11:54:52.447Z,11.60
2023-02-07T11:55:52.992Z,10.51
2023-02-07T11:56:52.632Z,9.65
2023-02-07T11:57:52.760Z,9.59
2023-02-07T11:58:52.921Z,9.19
2023-02-07T11:59:53.088Z,9.16
2023-02-07T12:00:53.230Z,9.20
2023-02-07T12:01:53.387Z,9.27
2023-02-07T12:02:53.515Z,9.50
2023-02-07T12:03:53.659Z,9.71
2023-02-07T12:04:53.785Z,10.11
2023-02-07T12:05:53.868Z,10.70
2023-02-07T12:06:54.034Z,11.24
2023-02-07T12:07:54.128Z,11.31
2023-02-07T12:08:54.229Z,11.53
2023-02-07T12:09:54.387Z,11.75
2023-02-07T12:10:54.483Z,11.42
2023-02-07T12:11:54.635Z,11.16
2023-02-07T12:12:54.736Z,10.98
2023-02-07T12:13:54.879Z,11.24
2023-02-07T12:14:55.036Z,11.45
2023-02-07T12:15:55.175Z,11.63
2023-02-07T12:16:55.247Z,11.26
2023-02-07T12:17:55.402Z,11.33
2023-02-07T12:18:55.561Z,11.12
2023-02-07T12:19:55.627Z,11.39
2023-02-07T12:20:55.768Z,11.51
2023-02-07T12:21:55.915Z,11.98
2023-02-07T12:23:06.462Z,12.15
2023-02-07T12:23:57.147Z,11.96
2023-02-07T12:24:56.249Z,11.97
2023-02-07T12:25:56.367Z,11.96
2023-02-07T12:26:56.466Z,11.78
2023-02-07T12:27:56.635Z,12.19
2023-02-07T12:29:12.130Z,12.71
2023-02-07T12:29:57.944Z,13.19
2023-02-07T12:30:57.027Z,12.69
2023-02-07T12:31:57.288Z,13.09
2023-02-07T12:32:57.321Z,13.94
2023-02-07T12:33:57.388Z,14.53
2023-02-07T12:34:57.471Z,14.56
2023-02-07T12:35:58.751Z,14.85
2023-02-07T12:36:57.769Z,15.16
2023-02-07T12:37:57.871Z,15.23
2023-02-07T12:38:58.421Z,15.41
2023-02-07T12:39:58.159Z,15.85
2023-02-07T12:40:58.282Z,15.86
2023-02-07T12:41:58.469Z,16.42
2023-02-07T12:42:58.478Z,16.73
2023-02-07T12:43:58.609Z,16.52
2023-02-07T12:44:58.763Z,16.60
2023-02-07T12:45:59.077Z,16.77
2023-02-07T12:47:00.427Z,17.02
2023-02-07T12:48:07.405Z,17.18
2023-02-07T12:48:59.276Z,17.24
2023-02-07T12:49:59.952Z,17.21
2023-02-07T12:50:59.557Z,17.33
2023-02-07T12:51:59.694Z,17.49
2023-02-07T12:52:59.824Z,17.20
2023-02-07T12:54:00.044Z,17.36
2023-02-07T12:55:00.046Z,16.48
2023-02-07T12:56:00.177Z,15.73
2023-02-07T12:57:00.317Z,16.34
2023-02-07T12:58:00.425Z,16.78